Airfield :
LOGIN :

Register | Disclaimer

   EN    FR    IT 

 










Legend :    VFR   Marginal VFR   IFR   Intensive IFR   Very Intensive IFR
Visi :
Ceiling :
>= 8 km
>= 3000ft
5 to 8 km
1000 to 3000 ft
1500m to 5 km
500 to 1000 ft
800 to 1500m
200 to 500 ft
< 800m
< 200 ft
Symbols :   Thunderstorms  Fog  Heavy snow  Heavy precipitations  Wind > 20 kt
SIGMETs :     Misc.  Thunderstorms  Icing  Turbulence  Mountain Waves  Volcanic Ashes






- Airport Elevation : 465 ft


ENFB - Statfjord B Platform

CURRENT METAR :
  • 201820Z AUTO 01017KT 9999NDV BKN034/// 08/00 Q1018 W///S4

EXPIRED METARs :
  • 201750Z AUTO 35019KT 9999NDV OVC028/// 08/02 Q1018 W///S5
  • 201720Z AUTO 36019KT 9999NDV BKN028/// 08/01 Q1017 W///S5
  • 201650Z AUTO 36021KT 9999NDV OVC041/// 08/02 Q1017 W///S5
  • 201620Z AUTO 01022KT 9999NDV BKN030/// 08/03 Q1016 W///S5
  • 201550Z AUTO 36022KT 9999NDV BKN034/// 08/02 Q1016 W///S5

TAF N/A



MET'MAP, your aeronautical weather chart ! - Copyright ORBIFLY December 2007 - Disclaimer

ORBIFLY MET'MAP TEAM :

Programming & Development : Alexandra Zaïnal
Concept & Development : Baudouin d'Aumeries
Co-Development & Prog : Marc-Olivier Méhu
Technical & hardware support : Manuel Goepfert

Contact : metmap@orbifly.com




SOURCES & CREDITS :

   NOAA